createdAt,value
2017-05-17T00:00:55.677Z,0
2017-05-17T00:01:57.349Z,0
2017-05-17T00:02:58.969Z,0
2017-05-17T00:04:00.589Z,0
2017-05-17T00:05:02.257Z,0
2017-05-17T00:06:03.943Z,0
2017-05-17T00:07:05.664Z,0
2017-05-17T00:08:07.297Z,0
2017-05-17T00:09:48.926Z,0
2017-05-17T00:10:50.544Z,0
2017-05-17T00:11:52.220Z,0
2017-05-17T00:12:53.862Z,0
2017-05-17T00:13:55.491Z,0
2017-05-17T00:15:38.154Z,0
2017-05-17T00:16:39.727Z,0
2017-05-17T00:17:41.370Z,0
2017-05-17T00:18:43.022Z,0
2017-05-17T00:19:44.747Z,0
2017-05-17T00:20:46.472Z,0
2017-05-17T00:21:48.156Z,0
2017-05-17T00:22:49.801Z,0
2017-05-17T00:23:51.556Z,0
2017-05-17T00:24:53.296Z,0
2017-05-17T00:25:55.038Z,0
2017-05-17T00:26:56.795Z,0
2017-05-17T00:27:58.488Z,0
2017-05-17T00:29:00.179Z,0
2017-05-17T00:30:01.827Z,0
2017-05-17T00:31:03.607Z,0
2017-05-17T00:32:05.409Z,0
2017-05-17T00:33:07.141Z,0
2017-05-17T00:34:08.860Z,0
2017-05-17T00:35:10.558Z,0
2017-05-17T00:36:12.219Z,0
2017-05-17T00:37:13.942Z,0
2017-05-17T00:38:15.705Z,0
2017-05-17T00:39:17.364Z,0
2017-05-17T00:40:19.009Z,0
2017-05-17T00:41:20.658Z,0
2017-05-17T00:42:22.454Z,0
2017-05-17T00:43:24.092Z,0
2017-05-17T00:44:25.772Z,0
2017-05-17T00:45:27.411Z,0
2017-05-17T00:46:29.015Z,0
2017-05-17T00:47:30.760Z,0
2017-05-17T00:48:32.398Z,0
2017-05-17T00:49:34.061Z,0
2017-05-17T00:50:35.792Z,0
2017-05-17T00:51:37.498Z,0
2017-05-17T00:52:39.216Z,0
2017-05-17T00:53:40.835Z,0
2017-05-17T00:54:42.521Z,0
2017-05-17T00:55:44.187Z,0
2017-05-17T00:56:45.884Z,0
2017-05-17T00:57:47.611Z,0
2017-05-17T00:58:49.280Z,0
2017-05-17T00:59:50.948Z,0
2017-05-17T01:00:52.643Z,0
2017-05-17T01:01:54.308Z,0
2017-05-17T01:02:56.031Z,0
2017-05-17T01:03:57.682Z,0
2017-05-17T01:04:59.396Z,0
2017-05-17T01:06:01.066Z,0
2017-05-17T01:07:42.253Z,0
2017-05-17T01:08:43.906Z,0
2017-05-17T01:09:45.555Z,0
2017-05-17T01:10:47.162Z,0
2017-05-17T01:11:48.776Z,0
2017-05-17T01:12:50.520Z,0
2017-05-17T01:13:52.193Z,0
2017-05-17T01:14:53.822Z,0
2017-05-17T01:15:55.448Z,0
2017-05-17T01:16:57.154Z,0
2017-05-17T01:17:58.884Z,0
2017-05-17T01:19:00.474Z,0
2017-05-17T01:20:02.213Z,0
2017-05-17T01:23:13.105Z,0
2017-05-17T01:24:14.792Z,0
2017-05-17T01:25:16.342Z,0
2017-05-17T01:26:17.973Z,0
2017-05-17T01:27:19.609Z,0
2017-05-17T01:28:21.374Z,0
2017-05-17T01:29:23.022Z,0
2017-05-17T01:30:24.637Z,0
2017-05-17T01:31:26.293Z,0
2017-05-17T01:32:27.925Z,0
2017-05-17T01:33:29.601Z,0
2017-05-17T01:34:31.257Z,0
2017-05-17T01:35:32.856Z,0
2017-05-17T01:36:34.544Z,0
2017-05-17T01:37:36.209Z,0
2017-05-17T01:38:38.009Z,0
2017-05-17T01:39:39.689Z,0
2017-05-17T01:40:41.391Z,0
2017-05-17T01:41:43.077Z,0
2017-05-17T01:42:44.725Z,0
2017-05-17T01:43:46.460Z,0
2017-05-17T01:44:48.108Z,0
2017-05-17T01:45:49.777Z,0
2017-05-17T01:46:51.442Z,0
2017-05-17T01:47:53.120Z,0
2017-05-17T01:48:54.856Z,0
2017-05-17T01:49:56.502Z,0
2017-05-17T01:50:58.187Z,0
2017-05-17T01:51:59.841Z,0
2017-05-17T01:53:01.539Z,0
2017-05-17T01:54:03.304Z,0
2017-05-17T01:55:04.988Z,0
2017-05-17T01:56:06.662Z,0
2017-05-17T01:57:08.327Z,0
2017-05-17T01:58:09.984Z,0
2017-05-17T01:59:11.697Z,0
2017-05-17T02:00:52.873Z,0
2017-05-17T02:01:54.554Z,0
2017-05-17T02:02:56.224Z,0
2017-05-17T02:03:57.915Z,0
2017-05-17T02:04:59.601Z,0
2017-05-17T02:06:01.262Z,0
2017-05-17T02:07:02.930Z,0
2017-05-17T02:08:04.546Z,0
2017-05-17T02:09:06.166Z,0
2017-05-17T02:10:07.823Z,0
2017-05-17T02:11:09.606Z,0
2017-05-17T02:12:11.267Z,0
2017-05-17T02:13:12.900Z,0
2017-05-17T02:14:14.581Z,0
2017-05-17T02:15:16.216Z,0
2017-05-17T02:16:17.897Z,0
2017-05-17T02:17:19.572Z,0
2017-05-17T02:18:21.264Z,0
2017-05-17T02:19:22.925Z,0
2017-05-17T02:20:24.573Z,0
2017-05-17T02:21:26.485Z,0
2017-05-17T02:22:28.164Z,0
2017-05-17T02:23:29.803Z,0
2017-05-17T02:24:31.481Z,0
2017-05-17T02:25:33.148Z,0
2017-05-17T02:26:34.859Z,0
2017-05-17T02:27:36.522Z,0
2017-05-17T02:28:38.247Z,0
2017-05-17T02:29:39.903Z,0
2017-05-17T02:30:41.552Z,0
2017-05-17T02:31:43.325Z,0
2017-05-17T02:32:44.975Z,0
2017-05-17T02:34:26.202Z,0
2017-05-17T02:35:27.883Z,0
2017-05-17T02:37:09.101Z,0
2017-05-17T02:38:10.728Z,0
2017-05-17T02:39:12.348Z,0
2017-05-17T02:40:13.968Z,0
2017-05-17T02:41:15.739Z,0
2017-05-17T02:42:17.351Z,0
2017-05-17T02:43:19.017Z,0
2017-05-17T02:44:20.715Z,0
2017-05-17T02:45:22.383Z,0
2017-05-17T02:46:24.126Z,0
2017-05-17T02:47:25.801Z,0
2017-05-17T02:48:27.517Z,0
2017-05-17T02:49:29.280Z,0
2017-05-17T02:50:30.982Z,0
2017-05-17T02:51:32.716Z,0
2017-05-17T02:53:13.941Z,0
2017-05-17T02:54:15.610Z,0
2017-05-17T02:55:17.320Z,0
2017-05-17T02:56:19.099Z,0
2017-05-17T02:57:20.751Z,0
2017-05-17T02:58:22.556Z,0
2017-05-17T02:59:24.301Z,0
2017-05-17T03:00:25.989Z,0
2017-05-17T03:01:27.730Z,0
2017-05-17T03:02:29.422Z,0
2017-05-17T03:03:31.183Z,0
2017-05-17T03:04:32.863Z,0
2017-05-17T03:05:34.539Z,0
2017-05-17T03:06:36.210Z,0
2017-05-17T03:07:37.855Z,0
2017-05-17T03:08:39.556Z,0
2017-05-17T03:09:41.265Z,0
2017-05-17T03:10:42.937Z,0
2017-05-17T03:11:44.597Z,0
2017-05-17T03:12:46.228Z,0
2017-05-17T03:13:47.919Z,0
2017-05-17T03:14:49.573Z,0
2017-05-17T03:15:51.235Z,0
2017-05-17T03:16:52.888Z,0
2017-05-17T03:17:54.525Z,0
2017-05-17T03:18:56.274Z,0
2017-05-17T03:19:57.932Z,0
2017-05-17T03:20:59.600Z,0
2017-05-17T03:22:01.300Z,0
2017-05-17T03:23:02.994Z,0
2017-05-17T03:24:04.799Z,0
2017-05-17T03:25:06.516Z,0
2017-05-17T03:26:08.240Z,0
2017-05-17T03:27:09.973Z,0
2017-05-17T03:28:11.690Z,0
2017-05-17T03:29:13.452Z,0
2017-05-17T03:30:15.142Z,0
2017-05-17T03:31:16.851Z,0
2017-05-17T03:32:18.590Z,0
2017-05-17T03:33:20.326Z,0
2017-05-17T03:34:22.074Z,0
2017-05-17T03:35:23.728Z,0
2017-05-17T03:36:25.414Z,0
2017-05-17T03:37:27.143Z,0
2017-05-17T03:38:28.868Z,0
2017-05-17T03:39:30.573Z,0
2017-05-17T03:40:32.305Z,5
2017-05-17T03:41:34.009Z,5
2017-05-17T03:42:35.679Z,5
2017-05-17T03:43:37.367Z,5
2017-05-17T03:45:18.588Z,5
2017-05-17T03:46:59.736Z,5
2017-05-17T03:48:43.976Z,5
2017-05-17T03:49:45.592Z,5
2017-05-17T03:50:47.268Z,5
2017-05-17T03:51:48.968Z,10
2017-05-17T03:52:50.707Z,10
2017-05-17T03:53:52.401Z,10
2017-05-17T03:54:54.108Z,10
2017-05-17T03:55:55.749Z,10
2017-05-17T03:56:57.659Z,10
2017-05-17T03:57:59.325Z,10
2017-05-17T03:59:01.473Z,10
2017-05-17T04:00:03.141Z,10
2017-05-17T04:01:04.849Z,10
2017-05-17T04:02:06.461Z,10
2017-05-17T04:03:08.061Z,10
2017-05-17T04:04:09.731Z,10
2017-05-17T04:05:11.345Z,10
2017-05-17T04:06:12.989Z,15
2017-05-17T04:07:14.667Z,15
2017-05-17T04:08:16.381Z,15
2017-05-17T04:09:18.147Z,15
2017-05-17T04:10:19.800Z,15
2017-05-17T04:11:21.437Z,15
2017-05-17T04:12:23.114Z,15
2017-05-17T04:13:24.812Z,15
2017-05-17T04:14:26.507Z,15
2017-05-17T04:15:28.173Z,20
2017-05-17T04:16:29.778Z,20
2017-05-17T04:17:31.443Z,20
2017-05-17T04:18:33.123Z,20
2017-05-17T04:19:34.883Z,25
2017-05-17T04:20:36.548Z,25
2017-05-17T04:21:38.242Z,25
2017-05-17T04:22:39.925Z,25
2017-05-17T04:23:41.637Z,30
2017-05-17T04:24:43.363Z,30
2017-05-17T04:25:45.038Z,30
2017-05-17T04:26:46.744Z,30
2017-05-17T04:27:48.375Z,35
2017-05-17T04:28:50.029Z,35
2017-05-17T04:29:51.810Z,35
2017-05-17T04:30:53.538Z,35
2017-05-17T04:31:55.220Z,35
2017-05-17T04:32:56.881Z,35
2017-05-17T04:33:58.536Z,40
2017-05-17T04:35:00.195Z,40
2017-05-17T04:36:41.411Z,40
2017-05-17T04:37:43.070Z,45
2017-05-17T04:38:44.763Z,45
2017-05-17T04:39:46.450Z,45
2017-05-17T04:40:48.103Z,45
2017-05-17T04:41:49.823Z,45
2017-05-17T04:42:51.498Z,50
2017-05-17T04:43:53.154Z,50
2017-05-17T04:44:54.793Z,50
2017-05-17T04:45:56.488Z,50
2017-05-17T04:46:58.233Z,50
2017-05-17T04:47:59.971Z,55
2017-05-17T04:49:01.719Z,55
2017-05-17T04:50:03.359Z,55
2017-05-17T04:51:05.057Z,55
2017-05-17T04:52:06.790Z,55
2017-05-17T04:53:08.472Z,55
2017-05-17T04:54:10.158Z,60
2017-05-17T04:55:11.846Z,60
2017-05-17T04:56:13.556Z,60
2017-05-17T04:57:15.306Z,60
2017-05-17T04:58:17.043Z,60
2017-05-17T04:59:58.280Z,65
2017-05-17T05:01:40.004Z,65
2017-05-17T05:02:41.656Z,65
2017-05-17T05:03:43.298Z,65
2017-05-17T05:04:45.041Z,65
2017-05-17T05:05:46.721Z,65
2017-05-17T05:06:48.481Z,70
2017-05-17T05:07:50.213Z,70
2017-05-17T05:08:51.931Z,70
2017-05-17T05:09:53.615Z,75
2017-05-17T05:10:55.292Z,75
2017-05-17T05:11:56.993Z,75
2017-05-17T05:12:58.712Z,75
2017-05-17T05:14:00.496Z,80
2017-05-17T05:15:02.206Z,80
2017-05-17T05:16:03.901Z,85
2017-05-17T05:17:05.549Z,85
2017-05-17T05:18:07.366Z,85
2017-05-17T05:19:09.078Z,90
2017-05-17T05:20:10.801Z,90
2017-05-17T05:21:12.448Z,90
2017-05-17T05:22:14.093Z,90
2017-05-17T05:23:15.878Z,95
2017-05-17T05:24:17.561Z,95
2017-05-17T05:25:19.276Z,95
2017-05-17T05:26:21.000Z,100
2017-05-17T05:27:22.711Z,100
2017-05-17T05:28:25.421Z,100
2017-05-17T05:30:06.747Z,105
2017-05-17T05:31:08.415Z,110
2017-05-17T05:32:10.259Z,110
2017-05-17T05:33:11.901Z,110
2017-05-17T05:34:13.539Z,115
2017-05-17T05:35:15.283Z,120
2017-05-17T05:36:16.962Z,125
2017-05-17T05:37:18.655Z,130
2017-05-17T05:38:20.345Z,140
2017-05-17T05:39:21.983Z,140
2017-05-17T05:40:23.663Z,145
2017-05-17T05:41:25.356Z,150
2017-05-17T05:42:26.974Z,155
2017-05-17T05:43:28.640Z,160
2017-05-17T05:44:30.285Z,165
2017-05-17T05:45:32.121Z,175
2017-05-17T05:46:33.805Z,180
2017-05-17T05:47:35.484Z,185
2017-05-17T05:48:37.180Z,190
2017-05-17T05:49:38.835Z,200
2017-05-17T05:50:40.591Z,205
2017-05-17T05:51:42.207Z,210
2017-05-17T05:52:43.860Z,215
2017-05-17T05:53:45.585Z,220
2017-05-17T05:54:47.263Z,230
2017-05-17T05:55:48.950Z,230
2017-05-17T05:56:50.575Z,235
2017-05-17T05:57:52.252Z,245
2017-05-17T05:58:53.993Z,250
2017-05-17T05:59:55.671Z,260
2017-05-17T06:00:57.311Z,265
2017-05-17T06:01:58.978Z,275
2017-05-17T06:03:00.633Z,280
2017-05-17T06:04:02.402Z,290
2017-05-17T06:05:04.110Z,295
2017-05-17T06:06:05.812Z,305
2017-05-17T06:07:07.531Z,310
2017-05-17T06:08:09.153Z,320
2017-05-17T06:09:10.910Z,325
2017-05-17T06:10:12.639Z,335
2017-05-17T06:11:14.322Z,340
2017-05-17T06:12:16.087Z,345
2017-05-17T06:13:17.876Z,355
2017-05-17T06:14:19.647Z,365
2017-05-17T06:15:21.245Z,375
2017-05-17T06:16:22.938Z,390
2017-05-17T06:17:24.728Z,405
2017-05-17T06:18:26.425Z,425
2017-05-17T06:19:28.127Z,440
2017-05-17T06:21:09.410Z,455
2017-05-17T06:22:11.095Z,465
2017-05-17T06:23:12.778Z,475
2017-05-17T06:24:14.542Z,485
2017-05-17T06:25:16.218Z,485
2017-05-17T06:26:18.290Z,490
2017-05-17T06:27:20.030Z,490
2017-05-17T06:28:21.727Z,495
2017-05-17T06:29:23.466Z,500
2017-05-17T06:30:25.402Z,510
2017-05-17T06:31:27.179Z,520
2017-05-17T06:32:28.879Z,530
2017-05-17T06:33:30.580Z,545
2017-05-17T06:34:32.295Z,555
2017-05-17T06:35:34.080Z,575
2017-05-17T06:36:35.871Z,590
2017-05-17T06:37:37.540Z,605
2017-05-17T06:38:39.226Z,625
2017-05-17T06:39:40.917Z,640
2017-05-17T06:40:42.706Z,655
2017-05-17T06:41:44.429Z,665
2017-05-17T06:42:46.163Z,690
2017-05-17T06:43:47.854Z,695
2017-05-17T06:44:49.593Z,715
2017-05-17T06:45:51.300Z,735
2017-05-17T06:46:53.065Z,755
2017-05-17T06:47:54.798Z,770
2017-05-17T06:48:56.471Z,780
2017-05-17T06:49:58.264Z,795
2017-05-17T06:50:59.980Z,810
2017-05-17T06:52:01.771Z,825
2017-05-17T06:53:03.428Z,850
2017-05-17T06:54:05.140Z,875
2017-05-17T06:55:06.782Z,905
2017-05-17T06:56:08.444Z,980
2017-05-17T06:57:10.197Z,945
2017-05-17T06:58:11.899Z,970
2017-05-17T06:59:13.540Z,940
2017-05-17T07:00:15.212Z,985
2017-05-17T07:01:16.914Z,910
2017-05-17T07:02:18.616Z,890
2017-05-17T07:03:20.335Z,920
2017-05-17T07:04:21.997Z,975
2017-05-17T07:05:23.705Z,1025
2017-05-17T07:06:25.394Z,1200
2017-05-17T07:07:27.101Z,1285
2017-05-17T07:08:28.746Z,1325
2017-05-17T07:09:30.393Z,1190
2017-05-17T07:10:32.044Z,1305
2017-05-17T07:11:33.756Z,1375
2017-05-17T07:12:35.594Z,1265
2017-05-17T07:14:16.834Z,1240
2017-05-17T07:15:18.466Z,1450
2017-05-17T07:16:20.201Z,1345
2017-05-17T07:17:21.905Z,1155
2017-05-17T07:18:23.551Z,1180
2017-05-17T07:19:25.389Z,1165
2017-05-17T07:20:27.103Z,1410
2017-05-17T07:21:28.736Z,1125
2017-05-17T07:22:30.388Z,1170
2017-05-17T07:23:32.012Z,1005
2017-05-17T07:24:33.693Z,1020
2017-05-17T07:25:35.800Z,965
2017-05-17T07:26:37.565Z,970
2017-05-17T07:27:39.236Z,1065
2017-05-17T07:28:40.938Z,1455
2017-05-17T07:29:42.703Z,1820
2017-05-17T07:30:44.377Z,1805
2017-05-17T07:31:46.074Z,1715
2017-05-17T07:32:47.757Z,1760
2017-05-17T07:33:49.448Z,2070
2017-05-17T07:34:51.185Z,1955
2017-05-17T07:35:52.822Z,1785
2017-05-17T07:36:54.522Z,1780
2017-05-17T07:37:56.167Z,1900
2017-05-17T07:38:57.809Z,1815
2017-05-17T07:39:59.573Z,1780
2017-05-17T07:41:01.231Z,1905
2017-05-17T07:42:02.964Z,2005
2017-05-17T07:43:04.649Z,2295
2017-05-17T07:44:06.321Z,2295
2017-05-17T07:45:07.998Z,2210
2017-05-17T07:46:09.596Z,2335
2017-05-17T07:47:11.281Z,2250
2017-05-17T07:48:12.945Z,2495
2017-05-17T07:49:14.602Z,2520
2017-05-17T07:50:16.321Z,2450
2017-05-17T07:51:18.021Z,2230
2017-05-17T07:52:19.656Z,2175
2017-05-17T07:53:21.316Z,2215
2017-05-17T07:54:22.986Z,2315
2017-05-17T07:55:24.706Z,2265
2017-05-17T07:56:26.367Z,2435
2017-05-17T07:57:28.029Z,2360
2017-05-17T07:58:29.700Z,2190
2017-05-17T07:59:31.392Z,2175
2017-05-17T08:00:33.096Z,2405
2017-05-17T08:01:34.739Z,2340
2017-05-17T08:02:36.386Z,2330
2017-05-17T08:03:38.061Z,2265
2017-05-17T08:04:39.711Z,2280
2017-05-17T08:06:21.415Z,2385
2017-05-17T08:07:23.068Z,2320
2017-05-17T08:08:24.693Z,2460
2017-05-17T08:09:26.386Z,2195
2017-05-17T08:10:28.022Z,2170
2017-05-17T08:11:29.833Z,2250
2017-05-17T08:12:31.499Z,2415
2017-05-17T08:13:33.179Z,2420
2017-05-17T08:14:34.861Z,2335
2017-05-17T08:15:36.568Z,2090
2017-05-17T08:16:38.315Z,2540
2017-05-17T08:17:40.019Z,2505
2017-05-17T08:18:41.763Z,2355
2017-05-17T08:19:43.447Z,2335
2017-05-17T08:20:45.150Z,2465
2017-05-17T08:21:46.840Z,2550
2017-05-17T08:22:48.491Z,2580
2017-05-17T08:23:50.196Z,2450
2017-05-17T08:24:51.855Z,2475
2017-05-17T08:25:53.521Z,2360
2017-05-17T08:26:55.235Z,2245
2017-05-17T08:27:56.943Z,2355
2017-05-17T08:28:58.621Z,2555
2017-05-17T08:30:00.267Z,2760
2017-05-17T08:31:01.956Z,2770
2017-05-17T08:32:03.685Z,2660
2017-05-17T08:33:05.359Z,2620
2017-05-17T08:34:07.066Z,2585
2017-05-17T08:35:08.748Z,2580
2017-05-17T08:36:10.473Z,2550
2017-05-17T08:37:51.705Z,2620
2017-05-17T08:39:33.483Z,2545
2017-05-17T08:40:35.112Z,2520
2017-05-17T08:41:36.779Z,2735
2017-05-17T08:42:38.422Z,3010
2017-05-17T08:43:40.080Z,3065
2017-05-17T08:44:41.995Z,2755
2017-05-17T08:45:43.637Z,2440
2017-05-17T08:46:45.255Z,2430
2017-05-17T08:47:46.922Z,2475
2017-05-17T08:48:48.573Z,2350
2017-05-17T08:49:50.602Z,2310
2017-05-17T08:50:52.284Z,2295
2017-05-17T08:51:53.946Z,2655
2017-05-17T08:52:55.628Z,2860
2017-05-17T08:53:57.239Z,2800
2017-05-17T08:54:58.992Z,2710
2017-05-17T08:56:00.669Z,2620
2017-05-17T08:57:02.339Z,2495
2017-05-17T08:58:45.029Z,2535
2017-05-17T08:59:46.696Z,2610
2017-05-17T09:00:48.368Z,2705
2017-05-17T09:01:50.033Z,2785
2017-05-17T09:02:51.840Z,2810
2017-05-17T09:03:53.614Z,2595
2017-05-17T09:04:55.260Z,2675
2017-05-17T09:05:56.925Z,2690
2017-05-17T09:06:58.626Z,2740
2017-05-17T09:08:00.312Z,2855
2017-05-17T09:09:02.113Z,2825
2017-05-17T09:10:03.780Z,2670
2017-05-17T09:11:05.509Z,2530
2017-05-17T09:12:07.209Z,2540
2017-05-17T09:13:08.892Z,2660
2017-05-17T09:14:10.664Z,2665
2017-05-17T09:15:12.310Z,2570
2017-05-17T09:16:14.085Z,2335
2017-05-17T09:17:15.749Z,2265
2017-05-17T09:18:17.472Z,2290
2017-05-17T09:19:19.256Z,2380
2017-05-17T09:20:20.952Z,2545
2017-05-17T09:21:22.690Z,2540
2017-05-17T09:22:24.338Z,2395
2017-05-17T09:23:26.095Z,2265
2017-05-17T09:24:27.859Z,2365
2017-05-17T09:25:29.588Z,2475
2017-05-17T09:26:31.282Z,2475
2017-05-17T09:27:32.956Z,2510
2017-05-17T09:28:34.730Z,2615
2017-05-17T09:29:36.586Z,2685
2017-05-17T09:30:38.299Z,2710
2017-05-17T09:31:40.074Z,2630
2017-05-17T09:32:41.837Z,2445
2017-05-17T09:33:43.628Z,2355
2017-05-17T09:34:45.441Z,2445
2017-05-17T09:35:47.176Z,2565
2017-05-17T09:36:48.975Z,2640
2017-05-17T09:37:50.807Z,2690
2017-05-17T09:38:52.557Z,2635
2017-05-17T09:39:54.371Z,2455
2017-05-17T09:40:56.095Z,2260
2017-05-17T09:41:57.962Z,2380
2017-05-17T09:42:59.724Z,2585
2017-05-17T09:44:01.487Z,2545
2017-05-17T09:45:03.313Z,2440
2017-05-17T09:46:05.026Z,2395
2017-05-17T09:47:06.783Z,2200
2017-05-17T09:48:08.505Z,2050
2017-05-17T09:49:10.340Z,2205
2017-05-17T09:50:51.688Z,2450
2017-05-17T09:51:53.578Z,2385
2017-05-17T09:52:55.329Z,2320
2017-05-17T09:53:57.120Z,2330
2017-05-17T09:54:58.879Z,2275
2017-05-17T09:56:00.838Z,2235
2017-05-17T09:57:02.618Z,2090
2017-05-17T09:58:04.383Z,1965
2017-05-17T09:59:06.134Z,2025
2017-05-17T10:00:07.930Z,2190
2017-05-17T10:01:09.683Z,2175
2017-05-17T10:02:12.148Z,2020
2017-05-17T10:03:13.886Z,1890
2017-05-17T10:04:15.556Z,1865
2017-05-17T10:05:17.265Z,2030
2017-05-17T10:06:19.003Z,2125
2017-05-17T10:07:20.752Z,1940
2017-05-17T10:08:22.413Z,1710
2017-05-17T10:09:24.098Z,1690
2017-05-17T10:10:25.751Z,1795
2017-05-17T10:11:27.519Z,1820
2017-05-17T10:12:29.247Z,1815
2017-05-17T10:13:30.913Z,1860
2017-05-17T10:14:32.554Z,1940
2017-05-17T10:15:34.183Z,1865
2017-05-17T10:16:35.926Z,1805
2017-05-17T10:17:37.615Z,1720
2017-05-17T10:18:39.322Z,1535
2017-05-17T10:19:40.962Z,1435
2017-05-17T10:20:42.626Z,1450
2017-05-17T10:21:44.398Z,1530
2017-05-17T10:22:46.086Z,1575
2017-05-17T10:23:47.793Z,1695
2017-05-17T10:24:49.465Z,1750
2017-05-17T10:25:51.169Z,1680
2017-05-17T10:26:52.977Z,1560
2017-05-17T10:27:54.683Z,1475
2017-05-17T10:28:56.469Z,1465
2017-05-17T10:29:58.147Z,1425
2017-05-17T10:30:59.845Z,1420
2017-05-17T10:32:01.607Z,1380
2017-05-17T10:33:03.279Z,1250
2017-05-17T10:34:04.977Z,1170
2017-05-17T10:35:06.764Z,625
2017-05-17T10:36:08.452Z,360
2017-05-17T10:37:10.160Z,345
2017-05-17T10:38:11.839Z,340
2017-05-17T10:39:13.524Z,335
2017-05-17T10:40:15.240Z,335
2017-05-17T10:41:56.466Z,315
2017-05-17T10:43:37.664Z,300
2017-05-17T10:44:39.332Z,295
2017-05-17T10:45:40.941Z,285
2017-05-17T10:46:42.635Z,285
2017-05-17T10:47:44.373Z,280
2017-05-17T10:48:46.087Z,275
2017-05-17T10:49:47.794Z,270
2017-05-17T10:50:49.424Z,265
2017-05-17T10:51:51.102Z,260
2017-05-17T10:52:52.781Z,260
2017-05-17T10:53:54.667Z,255
2017-05-17T10:54:56.342Z,255
2017-05-17T10:55:58.142Z,255
2017-05-17T10:56:59.925Z,250
2017-05-17T10:58:01.611Z,250
2017-05-17T10:59:03.343Z,245
2017-05-17T11:00:05.036Z,240
2017-05-17T11:01:06.720Z,235
2017-05-17T11:02:08.400Z,235
2017-05-17T11:03:10.112Z,235
2017-05-17T11:04:11.849Z,235
2017-05-17T11:05:13.518Z,230
2017-05-17T11:06:15.224Z,230
2017-05-17T11:07:16.938Z,230
2017-05-17T11:08:18.672Z,225
2017-05-17T11:09:20.489Z,225
2017-05-17T11:10:22.234Z,225
2017-05-17T11:11:23.975Z,225
2017-05-17T11:12:25.668Z,225
2017-05-17T11:13:27.400Z,225
2017-05-17T11:14:29.187Z,220
2017-05-17T11:15:30.882Z,220
2017-05-17T11:16:32.589Z,220
2017-05-17T11:17:34.276Z,215
2017-05-17T11:18:35.953Z,215
2017-05-17T11:19:37.711Z,215
2017-05-17T11:20:39.414Z,220
2017-05-17T11:21:41.121Z,220
2017-05-17T11:22:42.842Z,220
2017-05-17T11:23:44.555Z,215
2017-05-17T11:24:46.345Z,215
2017-05-17T11:25:48.071Z,215
2017-05-17T11:26:49.795Z,215
2017-05-17T11:27:51.530Z,210
2017-05-17T11:28:53.289Z,210
2017-05-17T11:29:55.116Z,210
2017-05-17T11:30:56.941Z,215
2017-05-17T11:31:58.686Z,215
2017-05-17T11:33:01.053Z,210
2017-05-17T11:34:42.348Z,210
2017-05-17T11:35:44.120Z,205
2017-05-17T11:36:45.788Z,205
2017-05-17T11:37:47.535Z,205
2017-05-17T11:38:49.223Z,210
2017-05-17T11:39:50.974Z,210
2017-05-17T11:40:52.688Z,210
2017-05-17T11:41:54.408Z,210
2017-05-17T11:42:56.093Z,210
2017-05-17T11:43:57.783Z,210
2017-05-17T11:44:59.558Z,210
2017-05-17T11:46:01.281Z,210
2017-05-17T11:47:03.042Z,210
2017-05-17T11:48:04.703Z,205
2017-05-17T11:49:06.305Z,205
2017-05-17T11:50:08.080Z,205
2017-05-17T11:51:09.780Z,205
2017-05-17T11:52:11.419Z,205
2017-05-17T11:53:13.058Z,205
2017-05-17T11:54:14.707Z,205
2017-05-17T11:55:16.467Z,205
2017-05-17T11:56:18.259Z,205
2017-05-17T11:57:19.950Z,205
2017-05-17T11:58:21.743Z,205
2017-05-17T11:59:23.394Z,210
2017-05-17T12:00:25.112Z,210
2017-05-17T12:01:26.808Z,210
2017-05-17T12:02:28.495Z,210
2017-05-17T12:03:30.172Z,210
2017-05-17T12:04:32.121Z,210
2017-05-17T12:05:34.198Z,210
2017-05-17T12:06:35.867Z,210
2017-05-17T12:07:37.527Z,210
2017-05-17T12:08:39.165Z,205
2017-05-17T12:09:40.814Z,205
2017-05-17T12:10:42.508Z,205
2017-05-17T12:11:44.174Z,205
2017-05-17T12:12:45.864Z,205
2017-05-17T12:13:47.545Z,205
2017-05-17T12:14:49.275Z,205
2017-05-17T12:16:33.477Z,205
2017-05-17T12:17:35.165Z,205
2017-05-17T12:18:36.876Z,205
2017-05-17T12:19:39.096Z,205
2017-05-17T12:20:40.828Z,205
2017-05-17T12:21:42.616Z,205
2017-05-17T12:22:44.305Z,205
2017-05-17T12:23:46.008Z,205
2017-05-17T12:24:47.689Z,205
2017-05-17T12:25:49.393Z,210
2017-05-17T12:26:51.167Z,210
2017-05-17T12:27:52.803Z,205
2017-05-17T12:28:54.566Z,205
2017-05-17T12:29:56.236Z,205
2017-05-17T12:30:57.928Z,205
2017-05-17T12:31:59.664Z,205
2017-05-17T12:33:01.562Z,205
2017-05-17T12:34:03.215Z,205
2017-05-17T12:35:04.940Z,205
2017-05-17T12:36:06.631Z,200
2017-05-17T12:37:08.370Z,200
2017-05-17T12:38:10.149Z,200
2017-05-17T12:39:11.929Z,200
2017-05-17T12:40:13.686Z,200
2017-05-17T12:41:15.400Z,195
2017-05-17T12:42:17.206Z,195
2017-05-17T12:43:19.011Z,195
2017-05-17T12:44:20.760Z,205
2017-05-17T12:45:22.510Z,200
2017-05-17T12:46:24.238Z,195
2017-05-17T12:47:25.976Z,200
2017-05-17T12:48:27.839Z,200
2017-05-17T12:49:29.626Z,200
2017-05-17T12:50:31.418Z,200
2017-05-17T12:51:33.108Z,200
2017-05-17T12:52:34.815Z,200
2017-05-17T12:53:36.699Z,200
2017-05-17T12:54:38.458Z,200
2017-05-17T12:55:40.147Z,200
2017-05-17T12:56:41.901Z,200
2017-05-17T12:57:43.704Z,200
2017-05-17T12:58:45.510Z,200
2017-05-17T12:59:47.300Z,200
2017-05-17T13:00:49.070Z,200
2017-05-17T13:01:50.892Z,200
2017-05-17T13:02:52.599Z,195
2017-05-17T13:03:54.448Z,195
2017-05-17T13:04:56.266Z,195
2017-05-17T13:05:58.014Z,195
2017-05-17T13:06:59.778Z,195
2017-05-17T13:08:01.543Z,195
2017-05-17T13:09:03.353Z,195
2017-05-17T13:10:05.094Z,195
2017-05-17T13:11:06.867Z,190
2017-05-17T13:12:08.626Z,190
2017-05-17T13:13:10.279Z,190
2017-05-17T13:14:12.001Z,190
2017-05-17T13:15:13.711Z,190
2017-05-17T13:16:15.469Z,190
2017-05-17T13:17:17.264Z,190
2017-05-17T13:18:18.951Z,190
2017-05-17T13:20:00.202Z,185
2017-05-17T13:21:01.974Z,185
2017-05-17T13:22:03.678Z,185
2017-05-17T13:23:05.427Z,185
2017-05-17T13:24:07.228Z,185
2017-05-17T13:25:09.031Z,185
2017-05-17T13:26:10.766Z,185
2017-05-17T13:27:12.503Z,185
2017-05-17T13:28:14.254Z,185
2017-05-17T13:29:15.953Z,185
2017-05-17T13:30:17.749Z,185
2017-05-17T13:31:19.454Z,185
2017-05-17T13:32:21.200Z,185
2017-05-17T13:33:22.878Z,180
2017-05-17T13:34:24.556Z,180
2017-05-17T13:35:26.307Z,180
2017-05-17T13:36:27.946Z,180
2017-05-17T13:37:29.617Z,180
2017-05-17T13:38:31.325Z,180
2017-05-17T13:39:33.040Z,175
2017-05-17T13:40:34.776Z,180
2017-05-17T13:41:36.502Z,180
2017-05-17T13:42:38.179Z,180
2017-05-17T13:43:39.861Z,180
2017-05-17T13:44:41.543Z,180
2017-05-17T13:45:43.315Z,180
2017-05-17T13:46:44.987Z,180
2017-05-17T13:47:46.644Z,180
2017-05-17T13:48:48.387Z,180
2017-05-17T13:49:50.063Z,175
2017-05-17T13:50:51.874Z,175
2017-05-17T13:51:53.555Z,175
2017-05-17T13:52:55.256Z,175
2017-05-17T13:53:56.963Z,175
2017-05-17T13:54:58.674Z,180
2017-05-17T13:56:00.374Z,180
2017-05-17T13:57:02.066Z,180
2017-05-17T13:58:03.760Z,180
2017-05-17T13:59:05.432Z,180
2017-05-17T14:00:07.095Z,180
2017-05-17T14:01:09.037Z,180
2017-05-17T14:02:10.733Z,180
2017-05-17T14:03:12.426Z,180
2017-05-17T14:04:14.123Z,180
2017-05-17T14:05:15.819Z,175
2017-05-17T14:06:17.699Z,175
2017-05-17T14:07:19.453Z,175
2017-05-17T14:08:21.119Z,175
2017-05-17T14:09:22.795Z,175
2017-05-17T14:11:04.043Z,175
2017-05-17T14:12:05.758Z,175
2017-05-17T14:13:07.419Z,175
2017-05-17T14:14:09.135Z,175
2017-05-17T14:15:10.886Z,175
2017-05-17T14:16:12.686Z,175
2017-05-17T14:17:14.337Z,175
2017-05-17T14:18:16.101Z,175
2017-05-17T14:19:17.864Z,175
2017-05-17T14:20:19.681Z,175
2017-05-17T14:21:21.367Z,175
2017-05-17T14:22:23.132Z,175
2017-05-17T14:23:24.856Z,175
2017-05-17T14:24:27.163Z,175
2017-05-17T14:25:28.882Z,175
2017-05-17T14:26:30.666Z,175
2017-05-17T14:27:32.388Z,175
2017-05-17T14:28:34.099Z,175
2017-05-17T14:29:35.831Z,175
2017-05-17T14:30:37.552Z,175
2017-05-17T14:31:39.338Z,175
2017-05-17T14:32:41.045Z,175
2017-05-17T14:33:42.736Z,175
2017-05-17T14:34:44.499Z,175
2017-05-17T14:35:46.237Z,170
2017-05-17T14:36:47.998Z,175
2017-05-17T14:37:49.666Z,170
2017-05-17T14:38:51.438Z,170
2017-05-17T14:39:53.165Z,170
2017-05-17T14:40:54.860Z,170
2017-05-17T14:41:56.667Z,170